createdAt,value
2019-05-26T00:01:14.015Z,10.35
2019-05-26T00:03:42.744Z,10.37
2019-05-26T00:06:11.385Z,10.32
2019-05-26T00:08:39.935Z,10.30
2019-05-26T00:11:08.594Z,10.30
2019-05-26T00:13:37.293Z,10.18
2019-05-26T00:16:05.896Z,10.15
2019-05-26T00:18:34.419Z,10.06
2019-05-26T00:21:04.431Z,10.10
2019-05-26T00:23:32.827Z,10.02
2019-05-26T00:26:01.271Z,10.02
2019-05-26T00:28:29.785Z,9.98
2019-05-26T00:30:58.366Z,9.82
2019-05-26T00:33:26.977Z,9.81
2019-05-26T00:35:55.451Z,9.81
2019-05-26T00:38:24.031Z,9.83
2019-05-26T00:40:52.594Z,9.88
2019-05-26T00:43:21.367Z,9.87
2019-05-26T00:45:49.882Z,9.81
2019-05-26T00:48:18.305Z,9.84
2019-05-26T00:50:46.725Z,9.78
2019-05-26T00:53:15.173Z,9.82
2019-05-26T00:55:43.571Z,9.76
2019-05-26T00:58:12.064Z,9.76
2019-05-26T01:00:43.035Z,9.77
2019-05-26T01:03:12.304Z,9.75
2019-05-26T01:05:41.068Z,9.71
2019-05-26T01:08:09.734Z,9.69
2019-05-26T01:10:38.295Z,9.70
2019-05-26T01:13:07.245Z,9.69
2019-05-26T01:15:35.798Z,9.63
2019-05-26T01:18:05.048Z,9.65
2019-05-26T01:20:33.663Z,9.60
2019-05-26T01:23:02.081Z,9.62
2019-05-26T01:25:30.510Z,9.58
2019-05-26T01:27:58.949Z,9.57
2019-05-26T01:30:38.571Z,9.53
2019-05-26T01:33:07.648Z,9.54
2019-05-26T01:35:39.914Z,9.53
2019-05-26T01:38:22.596Z,9.54
2019-05-26T01:40:43.787Z,9.53
2019-05-26T01:43:12.347Z,9.54
2019-05-26T01:45:40.774Z,9.52
2019-05-26T01:48:09.458Z,9.52
2019-05-26T01:50:38.007Z,9.50
2019-05-26T01:53:07.283Z,9.47
2019-05-26T01:55:36.240Z,9.46
2019-05-26T01:58:05.096Z,9.40
2019-05-26T02:00:33.602Z,9.40
2019-05-26T02:03:02.004Z,9.42
2019-05-26T02:05:30.441Z,9.41
2019-05-26T02:07:58.941Z,9.40
2019-05-26T02:10:27.349Z,9.32
2019-05-26T02:12:55.781Z,9.40
2019-05-26T02:15:25.145Z,9.39
2019-05-26T02:17:53.631Z,9.39
2019-05-26T02:20:22.483Z,9.39
2019-05-26T02:22:50.896Z,9.40
2019-05-26T02:25:20.262Z,9.36
2019-05-26T02:27:48.703Z,9.32
2019-05-26T02:30:18.159Z,9.35
2019-05-26T02:32:46.590Z,9.34
2019-05-26T02:35:15.459Z,9.34
2019-05-26T02:37:43.929Z,9.26
2019-05-26T02:40:15.450Z,9.28
2019-05-26T02:42:43.853Z,9.27
2019-05-26T02:45:16.726Z,9.26
2019-05-26T02:47:46.891Z,9.23
2019-05-26T02:50:16.593Z,9.24
2019-05-26T02:52:45.007Z,9.18
2019-05-26T02:55:13.963Z,9.20
2019-05-26T02:57:42.399Z,9.16
2019-05-26T03:00:13.200Z,9.15
2019-05-26T03:02:41.808Z,9.12
2019-05-26T03:05:11.764Z,9.10
2019-05-26T03:07:43.187Z,9.05
2019-05-26T03:10:14.291Z,9.05
2019-05-26T03:12:43.658Z,9.07
2019-05-26T03:15:13.923Z,9.10
2019-05-26T03:17:43.482Z,9.07
2019-05-26T03:20:14.934Z,9.03
2019-05-26T03:22:43.417Z,9.07
2019-05-26T03:25:12.918Z,9.05
2019-05-26T03:27:41.378Z,9.06
2019-05-26T03:30:12.150Z,9.04
2019-05-26T03:32:40.691Z,9.00
2019-05-26T03:35:10.545Z,9.07
2019-05-26T03:37:38.986Z,9.04
2019-05-26T03:40:11.524Z,9.11
2019-05-26T03:42:39.930Z,9.15
2019-05-26T03:45:09.500Z,9.09
2019-05-26T03:47:37.930Z,9.15
2019-05-26T03:50:09.557Z,9.22
2019-05-26T03:52:38.004Z,9.23
2019-05-26T03:55:07.448Z,9.29
2019-05-26T03:57:35.924Z,9.34
2019-05-26T04:00:07.679Z,9.38
2019-05-26T04:02:36.157Z,9.43
2019-05-26T04:05:07.022Z,9.44
2019-05-26T04:07:35.473Z,9.48
2019-05-26T04:10:08.265Z,9.49
2019-05-26T04:12:36.743Z,9.44
2019-05-26T04:15:06.903Z,9.48
2019-05-26T04:17:35.315Z,9.59
2019-05-26T04:20:04.893Z,9.62
2019-05-26T04:22:33.315Z,9.69
2019-05-26T04:25:02.048Z,9.68
2019-05-26T04:27:30.449Z,9.77
2019-05-26T04:29:58.854Z,9.81
2019-05-26T04:32:27.287Z,9.95
2019-05-26T04:34:55.784Z,10.03
2019-05-26T04:37:24.190Z,10.11
2019-05-26T04:39:52.621Z,10.10
2019-05-26T04:42:21.035Z,10.19
2019-05-26T04:44:49.475Z,10.24
2019-05-26T04:47:17.919Z,10.33
2019-05-26T04:49:46.408Z,10.35
2019-05-26T04:52:14.861Z,10.39
2019-05-26T04:54:43.314Z,10.50
2019-05-26T04:57:11.706Z,10.58
2019-05-26T04:59:40.135Z,10.65
2019-05-26T05:02:08.567Z,10.72
2019-05-26T05:04:36.993Z,10.81
2019-05-26T05:07:05.603Z,10.91
2019-05-26T05:09:34.030Z,10.96
2019-05-26T05:12:05.611Z,11.08
2019-05-26T05:14:34.032Z,11.14
2019-05-26T05:17:02.530Z,11.28
2019-05-26T05:19:30.981Z,11.39
2019-05-26T05:21:59.485Z,11.45
2019-05-26T05:24:28.197Z,11.57
2019-05-26T05:26:56.615Z,11.67
2019-05-26T05:29:25.064Z,11.79
2019-05-26T05:31:53.639Z,11.82
2019-05-26T05:34:22.064Z,12.02
2019-05-26T05:36:50.494Z,12.16
2019-05-26T05:39:18.926Z,12.33
2019-05-26T05:41:47.340Z,12.58
2019-05-26T05:44:15.773Z,12.71
2019-05-26T05:46:44.207Z,13.08
2019-05-26T05:49:12.654Z,13.26
2019-05-26T05:51:41.086Z,13.45
2019-05-26T05:54:09.491Z,13.67
2019-05-26T05:56:38.000Z,13.86
2019-05-26T05:59:06.398Z,14.04
2019-05-26T06:01:34.912Z,14.26
2019-05-26T06:04:03.420Z,14.35
2019-05-26T06:06:31.867Z,14.65
2019-05-26T06:09:00.303Z,14.80
2019-05-26T06:11:28.744Z,14.91
2019-05-26T06:13:57.151Z,14.97
2019-05-26T06:16:25.687Z,15.23
2019-05-26T06:18:54.137Z,15.38
2019-05-26T06:21:23.082Z,15.42
2019-05-26T06:23:51.752Z,15.44
2019-05-26T06:26:20.457Z,15.65
2019-05-26T06:28:52.186Z,15.80
2019-05-26T06:31:19.074Z,15.79
2019-05-26T06:33:47.575Z,15.98
2019-05-26T06:36:15.993Z,16.18
2019-05-26T06:38:44.514Z,16.35
2019-05-26T06:41:12.993Z,16.62
2019-05-26T06:43:41.478Z,16.77
2019-05-26T06:46:09.915Z,17.05
2019-05-26T06:48:38.336Z,17.32
2019-05-26T06:51:06.843Z,17.67
2019-05-26T06:53:37.443Z,17.82
2019-05-26T06:56:05.450Z,17.72
2019-05-26T06:58:34.037Z,17.93
2019-05-26T07:01:02.859Z,18.28
2019-05-26T07:03:31.352Z,18.30
2019-05-26T07:05:59.859Z,18.48
2019-05-26T07:08:28.874Z,18.33
2019-05-26T07:10:57.315Z,18.19
2019-05-26T07:13:25.889Z,17.93
2019-05-26T07:15:54.299Z,17.95
2019-05-26T07:18:22.762Z,18.03
2019-05-26T07:20:51.265Z,17.83
2019-05-26T07:23:19.704Z,17.71
2019-05-26T07:25:48.192Z,17.46
2019-05-26T07:28:17.372Z,17.66
2019-05-26T07:30:45.829Z,17.67
2019-05-26T07:33:14.316Z,17.60
2019-05-26T07:35:44.086Z,17.47
2019-05-26T07:38:12.566Z,17.42
2019-05-26T07:40:40.989Z,17.53
2019-05-26T07:43:09.983Z,17.43
2019-05-26T07:45:38.756Z,17.47
2019-05-26T07:48:07.183Z,17.63
2019-05-26T07:50:35.908Z,17.69
2019-05-26T07:53:04.612Z,17.54
2019-05-26T07:55:33.020Z,17.72
2019-05-26T07:58:01.526Z,17.92
2019-05-26T08:00:30.110Z,18.15
2019-05-26T08:02:58.916Z,18.01
2019-05-26T08:05:27.341Z,18.40
2019-05-26T08:08:11.483Z,18.52
2019-05-26T08:10:26.012Z,18.60
2019-05-26T08:12:54.444Z,18.84
2019-05-26T08:15:22.939Z,18.99
2019-05-26T08:17:51.424Z,18.99
2019-05-26T08:20:20.390Z,19.06
2019-05-26T08:22:48.866Z,18.85
2019-05-26T08:25:17.675Z,18.92
2019-05-26T08:27:46.100Z,18.82
2019-05-26T08:30:14.988Z,18.37
2019-05-26T08:32:43.395Z,18.57
2019-05-26T08:35:11.961Z,18.33
2019-05-26T08:37:40.409Z,18.30
2019-05-26T08:40:20.777Z,18.39
2019-05-26T08:42:51.236Z,18.54
2019-05-26T08:45:23.027Z,18.65
2019-05-26T08:47:52.794Z,18.69
2019-05-26T08:50:21.921Z,18.82
2019-05-26T08:52:50.590Z,18.80
2019-05-26T08:55:19.094Z,18.89
2019-05-26T08:57:47.522Z,19.12
2019-05-26T09:00:16.987Z,19.19
2019-05-26T09:02:45.439Z,19.03
2019-05-26T09:05:15.074Z,19.21
2019-05-26T09:07:43.515Z,19.11
2019-05-26T09:10:12.982Z,19.24
2019-05-26T09:12:41.546Z,19.49
2019-05-26T09:15:12.243Z,19.57
2019-05-26T09:17:40.786Z,19.71
2019-05-26T09:20:11.764Z,19.71
2019-05-26T09:22:40.514Z,19.82
2019-05-26T09:25:09.344Z,19.88
2019-05-26T09:27:38.033Z,19.88
2019-05-26T09:30:07.917Z,19.85
2019-05-26T09:32:36.916Z,20.13
2019-05-26T09:35:09.211Z,20.06
2019-05-26T09:37:37.899Z,19.65
2019-05-26T09:40:08.320Z,19.88
2019-05-26T09:42:36.787Z,19.85
2019-05-26T09:45:07.558Z,19.85
2019-05-26T09:47:35.972Z,20.07
2019-05-26T09:50:07.365Z,20.26
2019-05-26T09:52:36.303Z,20.38
2019-05-26T09:55:07.115Z,20.32
2019-05-26T09:57:35.547Z,20.34
2019-05-26T10:00:07.289Z,20.29
2019-05-26T10:02:35.779Z,20.38
2019-05-26T10:05:08.659Z,20.41
2019-05-26T10:07:37.065Z,20.76
2019-05-26T10:10:10.986Z,20.55
2019-05-26T10:12:39.345Z,20.57
2019-05-26T10:15:08.594Z,20.67
2019-05-26T10:17:37.019Z,20.72
2019-05-26T10:20:08.172Z,21.03
2019-05-26T10:22:36.669Z,20.97
2019-05-26T10:25:09.247Z,20.68
2019-05-26T10:27:37.672Z,20.52
2019-05-26T10:30:12.068Z,20.76
2019-05-26T10:32:41.611Z,20.96
2019-05-26T10:35:10.153Z,21.15
2019-05-26T10:37:38.579Z,20.98
2019-05-26T10:40:07.728Z,21.05
2019-05-26T10:42:36.153Z,21.05
2019-05-26T10:45:09.525Z,21.19
2019-05-26T10:47:38.000Z,21.48
2019-05-26T10:50:10.500Z,21.47
2019-05-26T10:52:38.925Z,21.21
2019-05-26T10:55:08.164Z,20.67
2019-05-26T10:57:36.731Z,20.69
2019-05-26T11:00:09.840Z,20.50
2019-05-26T11:02:38.310Z,20.34
2019-05-26T11:05:08.173Z,20.35
2019-05-26T11:07:36.680Z,20.36
2019-05-26T11:10:07.091Z,20.27
2019-05-26T11:12:35.593Z,20.35
2019-05-26T11:15:09.172Z,20.31
2019-05-26T11:17:37.676Z,20.25
2019-05-26T11:20:09.154Z,19.96
2019-05-26T11:22:37.593Z,19.96
2019-05-26T11:25:07.137Z,20.18
2019-05-26T11:27:35.559Z,20.08
2019-05-26T11:30:06.514Z,20.27
2019-05-26T11:32:34.902Z,20.23
2019-05-26T11:35:03.398Z,20.26
2019-05-26T11:37:31.905Z,20.47
2019-05-26T11:40:00.338Z,20.37
2019-05-26T11:42:28.809Z,20.23
2019-05-26T11:44:57.269Z,20.09
2019-05-26T11:47:25.682Z,20.08
2019-05-26T11:49:54.104Z,20.12
2019-05-26T11:52:22.672Z,20.11
2019-05-26T11:54:51.089Z,20.18
2019-05-26T11:57:19.537Z,20.37
2019-05-26T11:59:47.974Z,20.49
2019-05-26T12:02:16.365Z,20.60
2019-05-26T12:04:44.780Z,20.79
2019-05-26T12:07:13.216Z,20.90
2019-05-26T12:09:41.633Z,21.14
2019-05-26T12:12:10.074Z,21.16
2019-05-26T12:14:38.503Z,21.14
2019-05-26T12:17:06.926Z,21.33
2019-05-26T12:19:35.349Z,21.37
2019-05-26T12:22:03.821Z,21.44
2019-05-26T12:24:32.244Z,21.30
2019-05-26T12:27:00.678Z,21.41
2019-05-26T12:29:29.096Z,21.67
2019-05-26T12:31:57.532Z,21.64
2019-05-26T12:34:25.994Z,21.49
2019-05-26T12:36:54.405Z,21.34
2019-05-26T12:39:22.827Z,21.08
2019-05-26T12:41:51.263Z,21.09
2019-05-26T12:44:19.676Z,21.04
2019-05-26T12:46:48.106Z,20.90
2019-05-26T12:49:16.518Z,21.17
2019-05-26T12:51:44.948Z,21.03
2019-05-26T12:54:13.360Z,21.06
2019-05-26T12:56:41.767Z,21.14
2019-05-26T12:59:10.316Z,21.23
2019-05-26T13:01:38.715Z,21.11
2019-05-26T13:04:07.607Z,21.12
2019-05-26T13:06:36.036Z,21.01
2019-05-26T13:09:10.511Z,20.98
2019-05-26T13:11:39.035Z,20.99
2019-05-26T13:14:07.595Z,20.96
2019-05-26T13:16:36.146Z,20.97
2019-05-26T13:19:05.260Z,20.99
2019-05-26T13:21:33.699Z,21.03
2019-05-26T13:24:02.185Z,21.03
2019-05-26T13:26:30.601Z,21.11
2019-05-26T13:28:59.004Z,21.20
2019-05-26T13:31:27.439Z,21.26
2019-05-26T13:33:55.860Z,21.41
2019-05-26T13:36:24.267Z,21.37
2019-05-26T13:38:52.725Z,21.36
2019-05-26T13:41:21.132Z,21.47
2019-05-26T13:43:49.550Z,21.54
2019-05-26T13:46:17.987Z,21.62
2019-05-26T13:48:46.431Z,21.70
2019-05-26T13:51:14.857Z,21.63
2019-05-26T13:53:43.283Z,21.60
2019-05-26T13:56:11.705Z,21.63
2019-05-26T13:58:40.151Z,21.50
2019-05-26T14:01:08.545Z,21.45
2019-05-26T14:03:37.045Z,21.47
2019-05-26T14:06:05.605Z,21.24
2019-05-26T14:08:34.045Z,21.43
2019-05-26T14:11:02.501Z,21.41
2019-05-26T14:13:30.922Z,21.45
2019-05-26T14:16:01.706Z,21.61
2019-05-26T14:18:31.974Z,21.52
2019-05-26T14:21:00.394Z,21.61
2019-05-26T14:23:28.800Z,21.52
2019-05-26T14:25:57.228Z,21.63
2019-05-26T14:28:25.664Z,21.64
2019-05-26T14:30:54.078Z,21.62
2019-05-26T14:33:22.508Z,21.62
2019-05-26T14:35:50.931Z,21.80
2019-05-26T14:38:19.419Z,21.58
2019-05-26T14:40:47.847Z,21.49
2019-05-26T14:43:16.257Z,21.55
2019-05-26T14:45:52.818Z,21.57
2019-05-26T14:48:14.889Z,21.62
2019-05-26T14:50:45.057Z,21.49
2019-05-26T14:53:13.540Z,21.64
2019-05-26T14:55:42.022Z,21.41
2019-05-26T14:58:16.130Z,21.36
2019-05-26T15:00:40.619Z,21.47
2019-05-26T15:03:09.081Z,21.55
2019-05-26T15:05:37.505Z,21.69
2019-05-26T15:08:06.068Z,21.73
2019-05-26T15:10:34.507Z,21.77
2019-05-26T15:13:02.993Z,21.63
2019-05-26T15:15:34.905Z,21.70
2019-05-26T15:18:01.643Z,21.62
2019-05-26T15:20:30.085Z,21.62
2019-05-26T15:22:58.492Z,21.71
2019-05-26T15:25:26.953Z,21.67
2019-05-26T15:27:56.098Z,21.54
2019-05-26T15:30:24.634Z,21.64
2019-05-26T15:32:53.057Z,21.78
2019-05-26T15:35:21.474Z,21.74
2019-05-26T15:37:49.981Z,21.68
2019-05-26T15:40:18.735Z,21.59
2019-05-26T15:42:47.245Z,21.59
2019-05-26T15:45:16.198Z,21.53
2019-05-26T15:47:44.622Z,21.43
2019-05-26T15:50:13.909Z,21.36
2019-05-26T15:52:43.402Z,21.29
2019-05-26T15:55:12.464Z,21.28
2019-05-26T15:57:40.908Z,21.34
2019-05-26T16:00:09.535Z,21.24
2019-05-26T16:02:38.029Z,21.21
2019-05-26T16:05:07.295Z,21.28
2019-05-26T16:07:35.779Z,21.34
2019-05-26T16:10:09.909Z,21.40
2019-05-26T16:12:38.430Z,21.40
2019-05-26T16:15:09.950Z,21.37
2019-05-26T16:17:39.099Z,21.27
2019-05-26T16:20:09.507Z,21.32
2019-05-26T16:22:37.970Z,21.20
2019-05-26T16:25:07.507Z,21.12
2019-05-26T16:27:36.266Z,21.19
2019-05-26T16:30:09.806Z,21.18
2019-05-26T16:32:38.266Z,21.23
2019-05-26T16:35:07.619Z,21.15
2019-05-26T16:37:36.088Z,21.12
2019-05-26T16:40:06.676Z,21.07
2019-05-26T16:42:35.174Z,21.02
2019-05-26T16:45:04.611Z,20.99
2019-05-26T16:47:33.114Z,20.90
2019-05-26T16:50:01.611Z,20.88
2019-05-26T16:52:30.029Z,20.87
2019-05-26T16:54:58.441Z,20.88
2019-05-26T16:57:26.844Z,20.78
2019-05-26T16:59:55.262Z,20.85
2019-05-26T17:02:23.704Z,20.78
2019-05-26T17:04:52.129Z,20.77
2019-05-26T17:07:20.582Z,20.79
2019-05-26T17:09:48.982Z,20.75
2019-05-26T17:12:17.408Z,20.70
2019-05-26T17:14:45.844Z,20.77
2019-05-26T17:17:15.398Z,20.77
2019-05-26T17:19:43.956Z,20.73
2019-05-26T17:22:12.469Z,20.71
2019-05-26T17:24:40.872Z,20.75
2019-05-26T17:27:09.330Z,20.75
2019-05-26T17:29:37.728Z,20.70
2019-05-26T17:32:06.218Z,20.69
2019-05-26T17:34:34.800Z,20.63
2019-05-26T17:37:03.184Z,20.61
2019-05-26T17:39:31.620Z,20.59
2019-05-26T17:42:00.047Z,20.60
2019-05-26T17:44:28.459Z,20.53
2019-05-26T17:46:56.964Z,20.57
2019-05-26T17:49:25.375Z,20.53
2019-05-26T17:51:53.773Z,20.52
2019-05-26T17:54:22.211Z,20.50
2019-05-26T17:56:50.634Z,20.51
2019-05-26T17:59:19.095Z,20.49
2019-05-26T18:01:47.517Z,20.47
2019-05-26T18:04:16.733Z,20.44
2019-05-26T18:06:45.099Z,20.45
2019-05-26T18:09:13.515Z,20.46
2019-05-26T18:11:42.093Z,20.40
2019-05-26T18:14:10.529Z,20.32
2019-05-26T18:16:38.954Z,20.34
2019-05-26T18:19:07.520Z,20.25
2019-05-26T18:21:35.959Z,20.22
2019-05-26T18:24:05.011Z,20.17
2019-05-26T18:26:33.436Z,20.12
2019-05-26T18:29:01.935Z,20.12
2019-05-26T18:31:30.343Z,20.09
2019-05-26T18:33:58.760Z,20.05
2019-05-26T18:36:27.197Z,19.98
2019-05-26T18:38:57.128Z,19.93
2019-05-26T18:41:25.627Z,19.85
2019-05-26T18:43:54.091Z,19.83
2019-05-26T18:46:22.526Z,19.79
2019-05-26T18:48:50.939Z,19.79
2019-05-26T18:51:19.434Z,19.74
2019-05-26T18:53:47.916Z,19.74
2019-05-26T18:56:16.337Z,19.70
2019-05-26T18:58:45.840Z,19.57
2019-05-26T19:01:14.682Z,19.52
2019-05-26T19:03:43.591Z,19.51
2019-05-26T19:06:12.035Z,19.48
2019-05-26T19:08:42.223Z,19.47
2019-05-26T19:11:10.757Z,19.41
2019-05-26T19:13:39.271Z,19.34
2019-05-26T19:16:07.674Z,19.35
2019-05-26T19:18:36.103Z,19.34
2019-05-26T19:21:05.750Z,19.35
2019-05-26T19:23:34.158Z,19.37
2019-05-26T19:26:02.603Z,19.36
2019-05-26T19:28:30.996Z,19.32
2019-05-26T19:30:59.438Z,19.32
2019-05-26T19:33:27.879Z,19.28
2019-05-26T19:35:56.300Z,19.26
2019-05-26T19:38:24.735Z,19.25
2019-05-26T19:40:53.294Z,19.19
2019-05-26T19:43:21.705Z,19.21
2019-05-26T19:45:50.199Z,19.20
2019-05-26T19:48:32.989Z,19.18
2019-05-26T19:50:48.754Z,19.16
2019-05-26T19:53:17.215Z,19.13
2019-05-26T19:55:45.723Z,19.12
2019-05-26T19:58:14.226Z,19.16
2019-05-26T20:00:43.484Z,19.10
2019-05-26T20:03:11.907Z,19.14
2019-05-26T20:05:40.316Z,19.14
2019-05-26T20:08:08.846Z,19.09
2019-05-26T20:10:37.317Z,19.12
2019-05-26T20:13:05.836Z,19.13
2019-05-26T20:15:34.321Z,19.10
2019-05-26T20:18:02.956Z,19.08
2019-05-26T20:20:31.441Z,19.10
2019-05-26T20:22:59.849Z,19.08
2019-05-26T20:25:28.847Z,19.08
2019-05-26T20:27:57.262Z,19.08
2019-05-26T20:30:32.483Z,19.07
2019-05-26T20:33:01.019Z,18.99
2019-05-26T20:35:29.493Z,19.03
2019-05-26T20:37:57.940Z,19.04
2019-05-26T20:40:26.459Z,19.03
2019-05-26T20:42:54.869Z,19.04
2019-05-26T20:45:23.277Z,18.99
2019-05-26T20:47:52.575Z,18.97
2019-05-26T20:50:29.138Z,18.94
2019-05-26T20:52:51.381Z,18.93
2019-05-26T20:55:19.915Z,18.93
2019-05-26T20:57:48.339Z,18.90
2019-05-26T21:00:18.714Z,18.90
2019-05-26T21:02:47.131Z,18.89
2019-05-26T21:05:15.723Z,18.91
2019-05-26T21:07:44.112Z,18.90
2019-05-26T21:10:13.553Z,18.87
2019-05-26T21:12:41.976Z,18.84
2019-05-26T21:15:10.878Z,18.84
2019-05-26T21:17:39.307Z,18.85
2019-05-26T21:20:08.623Z,18.83
2019-05-26T21:22:37.098Z,18.78
2019-05-26T21:25:07.553Z,18.77
2019-05-26T21:27:36.034Z,18.79
2019-05-26T21:30:10.086Z,18.77
2019-05-26T21:32:38.708Z,18.77
2019-05-26T21:35:16.176Z,18.77
2019-05-26T21:37:54.976Z,18.80
2019-05-26T21:40:30.116Z,18.77
2019-05-26T21:42:58.615Z,18.78
2019-05-26T21:45:27.057Z,18.77
2019-05-26T21:47:55.506Z,18.72
2019-05-26T21:50:24.026Z,18.73
2019-05-26T21:52:52.568Z,18.75
2019-05-26T21:55:21.014Z,18.70
2019-05-26T21:57:49.513Z,18.68
2019-05-26T22:00:23.448Z,18.68
2019-05-26T22:02:51.942Z,18.65
2019-05-26T22:05:20.475Z,18.68
2019-05-26T22:07:59.729Z,18.66
2019-05-26T22:10:33.684Z,18.64
2019-05-26T22:13:03.028Z,18.63
2019-05-26T22:15:31.425Z,18.60
2019-05-26T22:17:59.902Z,18.65
2019-05-26T22:20:28.349Z,18.65
2019-05-26T22:22:56.859Z,18.61
2019-05-26T22:25:25.280Z,18.61
2019-05-26T22:27:53.737Z,18.59
2019-05-26T22:30:22.318Z,18.59
2019-05-26T22:32:50.732Z,18.58
2019-05-26T22:35:19.241Z,18.56
2019-05-26T22:37:47.668Z,18.55
2019-05-26T22:40:17.624Z,18.56
2019-05-26T22:42:46.089Z,18.55
2019-05-26T22:45:14.840Z,18.51
2019-05-26T22:47:43.276Z,18.51
2019-05-26T22:50:11.824Z,18.51
2019-05-26T22:52:40.236Z,18.48
2019-05-26T22:55:09.101Z,18.47
2019-05-26T22:57:37.500Z,18.47
2019-05-26T23:00:08.527Z,18.48
2019-05-26T23:02:40.621Z,18.46
2019-05-26T23:05:10.440Z,18.47
2019-05-26T23:07:40.732Z,18.41
2019-05-26T23:10:09.698Z,18.42
2019-05-26T23:12:39.797Z,18.41
2019-05-26T23:15:09.361Z,18.41
2019-05-26T23:17:38.330Z,18.34
2019-05-26T23:20:07.994Z,18.33
2019-05-26T23:22:36.437Z,18.33
2019-05-26T23:25:06.619Z,18.31
2019-05-26T23:27:35.042Z,18.32
2019-05-26T23:30:08.850Z,18.32
2019-05-26T23:32:37.256Z,18.30
2019-05-26T23:35:08.624Z,18.29
2019-05-26T23:37:37.515Z,18.27
2019-05-26T23:40:09.677Z,18.23
2019-05-26T23:42:38.092Z,18.22
2019-05-26T23:45:08.354Z,18.18
2019-05-26T23:47:36.828Z,18.12
2019-05-26T23:50:06.675Z,18.20
2019-05-26T23:52:35.110Z,18.07
2019-05-26T23:55:05.276Z,18.04
2019-05-26T23:57:33.673Z,17.97
